Time;durP1;ratioP1;P1;durP2;ratioP2;P2;SDS_P1;SDS_P2;PMS_P1;PMS_P2;Temp;Humidity;BMP_temperature;BMP_pressure;BME280_temperature;BME280_humidity;BME280_pressure;Samples;Min_cycle;Max_cycle;Signal;HPM_P1;HPM_P2
2023/02/11 00:00:25;;;;;;;27.77;17.03;;;6.80;99.90;;;;;;4899396;29;20601;-76
2023/02/11 00:02:51;;;;;;;26.47;17.90;;;6.80;99.90;;;;;;4901470;29;20442;-76
2023/02/11 00:05:17;;;;;;;30.33;19.83;;;6.80;99.90;;;;;;4918596;29;20809;-76
2023/02/11 00:07:43;;;;;;;28.92;18.02;;;6.80;99.90;;;;;;4899447;29;20471;-76
2023/02/11 00:10:11;;;;;;;29.07;17.87;;;6.80;99.90;;;;;;4903909;29;20189;-76
2023/02/11 00:12:39;;;;;;;30.27;17.70;;;6.80;99.90;;;;;;4899222;29;20546;-76
2023/02/11 00:15:08;;;;;;;28.85;18.90;;;6.80;99.90;;;;;;4899018;29;20222;-76
2023/02/11 00:17:34;;;;;;;25.38;16.08;;;6.80;99.90;;;;;;4897912;29;20244;-76
2023/02/11 00:20:01;;;;;;;27.30;16.97;;;6.80;99.90;;;;;;4898011;29;20180;-76
2023/02/11 00:22:29;;;;;;;24.17;16.30;;;6.80;99.90;;;;;;4902965;29;20471;-76
2023/02/11 00:24:55;;;;;;;28.88;18.63;;;6.80;99.90;;;;;;4909446;29;20942;-76
2023/02/11 00:27:22;;;;;;;26.77;17.83;;;6.80;99.90;;;;;;4898004;29;20394;-76
2023/02/11 00:29:48;;;;;;;31.53;18.23;;;6.80;99.90;;;;;;4897913;29;20444;-77
2023/02/11 00:32:16;;;;;;;29.50;17.80;;;6.80;99.90;;;;;;4897593;29;20422;-75
2023/02/11 00:34:45;;;;;;;27.80;17.80;;;6.80;99.90;;;;;;4882476;29;20426;-76
2023/02/11 00:37:13;;;;;;;27.77;16.33;;;6.80;99.90;;;;;;4897468;29;20981;-76
2023/02/11 00:39:41;;;;;;;26.07;16.83;;;6.80;99.90;;;;;;4882400;29;20245;-76
2023/02/11 00:42:07;;;;;;;30.40;20.27;;;6.80;99.90;;;;;;4866211;29;20562;-76
2023/02/11 00:44:33;;;;;;;29.70;18.17;;;6.80;99.90;;;;;;4898901;29;20424;-76
2023/02/11 00:46:59;;;;;;;27.90;17.10;;;6.80;99.90;;;;;;4881930;29;20708;-76
2023/02/11 00:49:25;;;;;;;27.13;17.17;;;6.80;99.90;;;;;;4898876;29;20926;-77
2023/02/11 00:51:53;;;;;;;25.40;15.70;;;6.80;99.90;;;;;;4897354;29;20757;-77
2023/02/11 00:54:19;;;;;;;25.37;16.53;;;6.80;99.90;;;;;;4881921;29;20497;-77
2023/02/11 00:56:47;;;;;;;27.50;16.20;;;6.80;99.90;;;;;;4897097;29;20465;-76
2023/02/11 00:59:13;;;;;;;25.60;17.40;;;6.80;99.90;;;;;;4881588;29;20490;-76
2023/02/11 01:01:41;;;;;;;31.67;17.75;;;6.80;99.90;;;;;;4862699;29;21210;-76
2023/02/11 01:04:12;;;;;;;28.77;17.30;;;6.80;99.90;;;;;;4894725;29;20187;-76
2023/02/11 01:06:40;;;;;;;20.80;15.17;;;6.80;99.90;;;;;;4889984;29;20464;-76
2023/02/11 01:09:06;;;;;;;23.55;15.93;;;6.80;99.90;;;;;;4897402;29;20402;-76
2023/02/11 01:11:34;;;;;;;24.67;16.60;;;6.80;99.90;;;;;;4896989;29;20223;-76
2023/02/11 01:14:03;;;;;;;26.80;15.80;;;6.80;99.90;;;;;;4897347;29;20401;-77
2023/02/11 01:16:31;;;;;;;28.92;17.52;;;6.80;99.90;;;;;;4897220;29;20530;-76
2023/02/11 01:18:57;;;;;;;27.25;17.23;;;6.80;99.90;;;;;;4897431;29;20192;-77
2023/02/11 01:21:26;;;;;;;22.00;16.20;;;6.80;99.90;;;;;;4898277;29;20278;-77
2023/02/11 01:23:52;;;;;;;28.00;17.23;;;6.90;99.90;;;;;;4897243;29;20483;-76
2023/02/11 01:26:23;;;;;;;30.30;17.25;;;6.80;99.90;;;;;;4897135;29;20460;-76
2023/02/11 01:28:49;;;;;;;28.50;17.40;;;6.90;99.90;;;;;;4897208;29;20281;-76
2023/02/11 01:31:18;;;;;;;31.13;18.83;;;6.80;99.90;;;;;;4920516;29;20537;-77
2023/02/11 01:33:48;;;;;;;24.47;15.97;;;6.80;99.90;;;;;;4931598;29;20419;-77
2023/02/11 01:36:16;;;;;;;23.40;15.93;;;6.90;99.90;;;;;;4883966;29;20479;-77
2023/02/11 01:38:43;;;;;;;27.53;16.60;;;6.90;99.90;;;;;;4896873;29;20218;-76
2023/02/11 01:41:13;;;;;;;30.63;17.00;;;6.80;99.90;;;;;;4897195;29;20406;-77
2023/02/11 01:43:47;;;;;;;24.60;15.43;;;6.90;99.90;;;;;;4885804;29;20494;-77
2023/02/11 01:46:27;;;;;;;28.43;16.70;;;6.90;99.90;;;;;;4847699;29;20435;-76
2023/02/11 01:49:17;;;;;;;23.63;16.10;;;6.80;99.90;;;;;;4877787;29;20513;-76
2023/02/11 01:51:55;;;;;;;26.33;16.65;;;6.80;99.90;;;;;;4877527;29;20545;-77
2023/02/11 01:57:23;;;;;;;24.25;16.23;;;6.80;99.90;;;;;;4881237;29;20207;-76
2023/02/11 02:00:01;;;;;;;25.67;16.23;;;6.80;99.90;;;;;;4896630;29;20685;-76
2023/02/11 02:02:41;;;;;;;24.63;16.27;;;6.80;99.90;;;;;;4903878;29;20195;-76
2023/02/11 02:05:23;;;;;;;24.30;16.60;;;6.80;99.90;;;;;;4896697;29;20198;-76
2023/02/11 02:07:54;;;;;;;22.50;15.90;;;6.80;99.90;;;;;;4896331;29;20592;-77
2023/02/11 02:10:28;;;;;;;25.67;17.33;;;6.80;99.90;;;;;;4896285;29;20456;-77
2023/02/11 02:12:54;;;;;;;25.33;16.90;;;6.80;99.90;;;;;;4880944;29;20435;-77
2023/02/11 02:15:24;;;;;;;24.83;15.37;;;6.80;99.90;;;;;;4897635;29;20415;-76
2023/02/11 02:18:07;;;;;;;22.87;16.80;;;6.80;99.90;;;;;;4897927;29;20404;-77
2023/02/11 02:20:54;;;;;;;24.67;17.00;;;6.80;99.90;;;;;;4896512;29;20444;-76
2023/02/11 02:23:39;;;;;;;24.40;16.60;;;6.80;99.90;;;;;;4881116;29;20529;-77
2023/02/11 02:26:27;;;;;;;25.00;17.07;;;6.90;99.90;;;;;;4922339;29;20450;-76
2023/02/11 02:29:18;;;;;;;30.77;17.03;;;6.80;99.90;;;;;;4896593;29;20824;-77
2023/02/11 02:32:32;;;;;;;22.55;15.00;;;6.80;99.90;;;;;;4903379;29;20446;-76
2023/02/11 02:35:14;;;;;;;24.50;16.00;;;6.80;99.90;;;;;;4863878;29;20214;-76
2023/02/11 02:37:49;;;;;;;23.80;14.95;;;6.80;99.90;;;;;;4927541;29;20535;-76
2023/02/11 02:40:35;;;;;;;25.63;16.37;;;6.80;99.90;;;;;;4895588;29;20201;-76
2023/02/11 02:43:03;;;;;;;26.27;14.82;;;6.80;99.90;;;;;;4880536;29;20431;-76
2023/02/11 02:45:29;;;;;;;23.90;15.50;;;6.90;99.90;;;;;;4896151;29;20642;-76
2023/02/11 02:47:58;;;;;;;25.60;16.50;;;6.80;99.90;;;;;;4897394;29;21057;-77
2023/02/11 02:50:32;;;;;;;23.03;16.20;;;6.90;99.90;;;;;;4896227;29;20441;-76
2023/02/11 02:53:19;;;;;;;24.20;15.88;;;6.90;99.90;;;;;;4897335;29;20424;-76
2023/02/11 02:56:24;;;;;;;22.90;16.07;;;6.90;99.90;;;;;;4896179;29;20212;-77
2023/02/11 02:59:05;;;;;;;26.53;16.97;;;6.80;99.90;;;;;;4863101;29;20833;-77
2023/02/11 03:01:34;;;;;;;27.33;16.00;;;6.90;99.90;;;;;;4898756;29;20996;-75
2023/02/11 03:04:06;;;;;;;23.60;14.67;;;6.90;99.90;;;;;;4899847;29;20422;-76
2023/02/11 03:06:57;;;;;;;25.77;15.77;;;6.90;99.90;;;;;;4883966;29;20553;-76
2023/02/11 03:09:33;;;;;;;23.93;16.40;;;6.90;99.90;;;;;;4900542;29;20430;-76
2023/02/11 03:12:03;;;;;;;24.03;16.03;;;6.90;99.90;;;;;;4900783;29;20791;-76
2023/02/11 03:14:31;;;;;;;25.33;16.55;;;6.90;99.90;;;;;;4900690;29;20503;-76
2023/02/11 03:17:01;;;;;;;25.53;15.60;;;6.90;99.90;;;;;;4899691;29;20207;-77
2023/02/11 03:19:36;;;;;;;22.37;15.07;;;6.90;99.90;;;;;;4899454;29;20554;-76
2023/02/11 03:22:10;;;;;;;21.77;15.53;;;6.80;99.90;;;;;;4900596;29;20430;-77
2023/02/11 03:24:40;;;;;;;25.40;16.07;;;6.90;99.90;;;;;;4870912;29;20443;-76
2023/02/11 03:27:27;;;;;;;21.80;14.57;;;6.90;99.90;;;;;;4882809;29;20476;-76
2023/02/11 03:30:00;;;;;;;22.30;15.83;;;6.90;99.90;;;;;;4900399;29;20765;-77
2023/02/11 03:32:34;;;;;;;22.13;14.50;;;6.90;99.90;;;;;;4883737;29;20472;-76
2023/02/11 03:35:18;;;;;;;23.20;14.50;;;6.90;99.90;;;;;;4899677;29;20530;-76
2023/02/11 03:37:54;;;;;;;21.33;15.20;;;6.90;99.90;;;;;;4883721;29;20544;-76
2023/02/11 03:40:28;;;;;;;28.57;16.93;;;6.90;99.90;;;;;;4891203;29;20507;-76
2023/02/11 03:43:02;;;;;;;24.90;14.93;;;6.90;99.90;;;;;;4885614;29;20422;-77
2023/02/11 03:45:28;;;;;;;20.60;14.90;;;6.90;99.90;;;;;;4899390;29;20443;-77
2023/02/11 03:48:02;;;;;;;21.77;14.52;;;6.90;99.90;;;;;;4899387;29;20455;-77
2023/02/11 03:50:33;;;;;;;23.90;14.40;;;6.90;99.90;;;;;;4899165;29;20243;-76
2023/02/11 03:53:03;;;;;;;26.43;15.30;;;6.90;99.90;;;;;;4899407;29;20443;-77
2023/02/11 03:55:31;;;;;;;22.83;14.63;;;6.90;99.90;;;;;;4899748;29;20443;-76
2023/02/11 03:57:57;;;;;;;25.17;14.93;;;6.90;99.90;;;;;;4900224;29;20439;-77
2023/02/11 04:00:31;;;;;;;24.30;15.00;;;6.90;99.90;;;;;;4899231;29;20945;-77
2023/02/11 04:02:59;;;;;;;21.50;14.10;;;6.90;99.90;;;;;;4868153;29;20437;-76
2023/02/11 04:05:28;;;;;;;26.27;14.20;;;6.90;99.90;;;;;;4899785;29;20994;-76
2023/02/11 04:07:54;;;;;;;24.10;15.13;;;6.90;99.90;;;;;;4883154;29;20482;-77
2023/02/11 04:10:24;;;;;;;21.43;13.90;;;6.90;99.90;;;;;;4898858;29;20829;-76
2023/02/11 04:12:53;;;;;;;26.10;14.77;;;6.90;99.90;;;;;;4882128;29;20870;-76
2023/02/11 04:15:21;;;;;;;20.53;13.07;;;6.90;99.90;;;;;;4883119;29;20847;-76
2023/02/11 04:17:50;;;;;;;21.90;14.50;;;6.90;99.90;;;;;;4898619;29;20495;-76
2023/02/11 04:20:15;;;;;;;23.23;13.90;;;6.90;99.90;;;;;;4898878;29;21254;-76
2023/02/11 04:22:44;;;;;;;30.87;14.57;;;6.90;99.90;;;;;;4898785;29;20463;-76
2023/02/11 04:25:12;;;;;;;20.65;13.43;;;6.90;99.90;;;;;;4891771;29;20448;-76
2023/02/11 04:27:40;;;;;;;20.90;13.93;;;6.90;99.90;;;;;;4898189;29;20229;-76
2023/02/11 04:30:10;;;;;;;24.30;14.20;;;6.90;99.90;;;;;;4898522;29;20428;-76
2023/02/11 04:32:36;;;;;;;22.93;13.87;;;6.90;99.90;;;;;;4882720;29;20542;-76
2023/02/11 04:35:05;;;;;;;21.97;14.33;;;6.90;99.90;;;;;;4899613;29;20435;-76
2023/02/11 04:37:31;;;;;;;22.02;13.52;;;6.90;99.90;;;;;;4898206;29;20463;-76
2023/02/11 04:39:57;;;;;;;19.93;13.67;;;6.90;99.90;;;;;;4899457;29;20172;-76
2023/02/11 04:42:31;;;;;;;19.50;12.93;;;6.90;99.90;;;;;;4899006;29;20458;-76
2023/02/11 04:44:59;;;;;;;18.30;13.40;;;6.90;99.90;;;;;;4882626;29;20447;-76
2023/02/11 04:47:28;;;;;;;24.40;14.40;;;7.00;99.90;;;;;;4898014;29;20483;-77
2023/02/11 04:49:53;;;;;;;19.25;13.15;;;7.00;99.90;;;;;;4897229;29;20444;-76
2023/02/11 04:52:20;;;;;;;22.37;13.20;;;6.90;99.90;;;;;;4915631;29;20227;-76
2023/02/11 04:54:52;;;;;;;25.97;14.63;;;6.90;99.90;;;;;;4899092;29;20441;-76
2023/02/11 04:57:18;;;;;;;25.10;12.53;;;6.90;99.90;;;;;;4884018;29;20501;-76
2023/02/11 04:59:44;;;;;;;25.43;13.83;;;7.00;99.90;;;;;;4899498;29;20486;-76
2023/02/11 05:02:13;;;;;;;22.40;13.53;;;6.90;99.90;;;;;;4882017;29;20428;-76
2023/02/11 05:04:41;;;;;;;23.97;13.47;;;6.90;99.90;;;;;;4899341;29;20503;-76
2023/02/11 05:07:09;;;;;;;23.90;14.30;;;6.90;99.90;;;;;;4882633;29;20573;-77
2023/02/11 05:09:35;;;;;;;25.80;14.70;;;6.90;99.90;;;;;;4882191;29;20279;-76
2023/02/11 05:12:01;;;;;;;21.43;14.13;;;6.90;99.90;;;;;;4881476;29;20231;-76
2023/02/11 05:14:27;;;;;;;20.83;13.67;;;7.00;99.90;;;;;;4896496;29;20443;-76
2023/02/11 05:16:56;;;;;;;22.63;14.57;;;6.90;99.90;;;;;;4896993;29;20459;-77
2023/02/11 05:19:24;;;;;;;23.80;13.13;;;7.00;99.90;;;;;;4896948;29;21010;-76
2023/02/11 05:21:52;;;;;;;24.93;13.97;;;6.90;99.90;;;;;;4897740;29;20906;-76
2023/02/11 05:24:21;;;;;;;23.60;15.00;;;6.90;99.90;;;;;;4902848;29;20478;-77
2023/02/11 05:26:48;;;;;;;21.00;13.97;;;6.90;99.90;;;;;;4910609;29;20506;-76
2023/02/11 05:29:14;;;;;;;30.37;14.67;;;6.90;99.90;;;;;;4897020;29;20927;-76
2023/02/11 05:31:40;;;;;;;22.00;13.88;;;6.90;99.90;;;;;;4897208;29;20463;-76
2023/02/11 05:34:06;;;;;;;23.43;13.60;;;7.00;99.90;;;;;;4866408;29;20230;-76
2023/02/11 05:36:32;;;;;;;21.13;14.27;;;6.90;99.90;;;;;;4898276;29;20453;-77
2023/02/11 05:38:58;;;;;;;21.17;14.90;;;6.90;99.90;;;;;;4897399;29;20961;-76
2023/02/11 05:41:23;;;;;;;20.83;13.00;;;6.90;99.90;;;;;;4878302;29;20458;-76
2023/02/11 05:43:52;;;;;;;22.43;14.07;;;6.90;99.90;;;;;;4893937;29;20414;-76
2023/02/11 05:46:18;;;;;;;22.83;13.20;;;6.90;99.90;;;;;;4878463;29;20468;-76
2023/02/11 05:48:48;;;;;;;19.43;13.13;;;6.90;99.90;;;;;;4904624;29;20568;-77
2023/02/11 05:51:14;;;;;;;26.90;15.13;;;6.90;99.90;;;;;;4899740;29;20850;-77
2023/02/11 05:53:40;;;;;;;18.70;13.60;;;6.90;99.90;;;;;;4899434;29;20492;-77
2023/02/11 05:56:09;;;;;;;22.67;14.27;;;6.90;99.90;;;;;;4881195;29;20578;-76
2023/02/11 05:58:37;;;;;;;20.50;15.40;;;6.90;99.90;;;;;;4881502;29;20760;-76
2023/02/11 06:01:10;;;;;;;25.57;14.40;;;6.90;99.90;;;;;;4896229;29;20439;-76
2023/02/11 06:03:36;;;;;;;24.57;14.40;;;6.90;99.90;;;;;;4897920;29;20509;-76
2023/02/11 06:06:02;;;;;;;25.00;14.30;;;6.90;99.90;;;;;;4895994;29;21041;-76
2023/02/11 06:08:29;;;;;;;21.37;12.83;;;6.90;99.90;;;;;;4896726;29;20450;-76
2023/02/11 06:10:54;;;;;;;21.57;14.13;;;6.90;99.90;;;;;;4897715;29;20412;-76
2023/02/11 06:13:21;;;;;;;21.30;13.63;;;6.90;99.90;;;;;;4881232;29;20441;-75
2023/02/11 06:15:56;;;;;;;24.57;15.37;;;6.90;99.90;;;;;;4897702;29;20854;-76
2023/02/11 06:18:27;;;;;;;23.60;13.50;;;6.90;99.90;;;;;;4880690;29;20427;-77
2023/02/11 06:20:53;;;;;;;21.10;14.27;;;6.90;99.90;;;;;;4881310;29;20946;-76
2023/02/11 06:23:24;;;;;;;22.50;13.63;;;6.90;99.90;;;;;;4881304;29;20179;-77
2023/02/11 06:26:01;;;;;;;23.87;13.93;;;6.90;99.90;;;;;;4908832;29;20463;-77
2023/02/11 06:28:28;;;;;;;24.08;13.32;;;6.90;99.90;;;;;;4896485;29;20443;-76
2023/02/11 06:30:54;;;;;;;21.07;14.57;;;6.90;99.90;;;;;;4892150;29;20206;-77
2023/02/11 06:33:20;;;;;;;19.40;13.43;;;6.90;99.90;;;;;;4913730;29;20436;-76
2023/02/11 06:35:46;;;;;;;20.33;13.20;;;6.90;99.90;;;;;;4900209;29;20207;-77
2023/02/11 06:38:12;;;;;;;20.10;13.93;;;6.90;99.90;;;;;;4972609;23;20492;-76
2023/02/11 06:40:40;;;;;;;20.37;12.80;;;6.90;99.90;;;;;;4924827;29;20418;-76
2023/02/11 06:43:06;;;;;;;24.03;13.93;;;6.90;99.90;;;;;;4942034;29;20989;-77
2023/02/11 06:45:34;;;;;;;25.53;13.30;;;6.90;99.90;;;;;;4924027;29;20513;-76
2023/02/11 06:48:00;;;;;;;24.20;15.13;;;6.90;99.90;;;;;;4923160;29;20552;-76
2023/02/11 06:50:29;;;;;;;26.17;14.80;;;6.90;99.90;;;;;;4937364;29;20960;-76
2023/02/11 06:52:55;;;;;;;20.67;13.57;;;6.90;99.90;;;;;;4906378;29;20472;-75
2023/02/11 06:55:21;;;;;;;30.80;14.73;;;6.90;99.90;;;;;;4925681;29;20199;-77
2023/02/11 06:57:49;;;;;;;20.57;13.23;;;6.90;99.90;;;;;;4911215;29;20470;-77
2023/02/11 07:00:18;;;;;;;21.50;13.13;;;6.90;99.90;;;;;;4945420;29;20429;-77
2023/02/11 07:02:46;;;;;;;20.10;12.97;;;6.90;99.90;;;;;;4916688;29;20234;-78
2023/02/11 07:05:12;;;;;;;20.87;12.83;;;6.90;99.90;;;;;;4925868;29;20892;-77
2023/02/11 07:07:38;;;;;;;25.97;13.33;;;6.90;99.90;;;;;;4925001;29;20562;-77
2023/02/11 07:10:05;;;;;;;19.43;13.33;;;6.90;99.90;;;;;;4921034;29;21139;-74
2023/02/11 07:12:34;;;;;;;18.80;13.37;;;6.90;99.90;;;;;;4932404;29;20834;-74
2023/02/11 07:15:02;;;;;;;20.50;12.97;;;6.90;99.90;;;;;;4932700;29;20433;-74
2023/02/11 07:17:29;;;;;;;26.03;14.03;;;6.90;99.90;;;;;;4923675;29;20531;-74
2023/02/11 07:19:55;;;;;;;20.80;14.27;;;6.90;99.90;;;;;;4940636;29;20497;-73
2023/02/11 07:22:23;;;;;;;21.23;14.75;;;6.90;99.90;;;;;;4938526;29;20445;-74
2023/02/11 07:24:50;;;;;;;21.87;13.57;;;6.90;99.90;;;;;;4924716;29;20680;-74
2023/02/11 07:27:16;;;;;;;23.70;13.87;;;6.90;99.90;;;;;;4918754;29;20473;-74
2023/02/11 07:29:45;;;;;;;24.47;14.10;;;6.90;99.90;;;;;;4936806;29;20556;-74
2023/02/11 07:32:14;;;;;;;26.00;14.00;;;6.90;99.90;;;;;;4934327;29;20774;-74
2023/02/11 07:34:40;;;;;;;23.57;14.60;;;6.90;99.90;;;;;;4936711;29;20797;-74
2023/02/11 07:37:06;;;;;;;26.33;15.03;;;6.90;99.90;;;;;;4936814;29;21098;-74
2023/02/11 07:39:32;;;;;;;24.93;14.40;;;6.90;99.90;;;;;;4936138;29;20519;-74
2023/02/11 07:42:02;;;;;;;23.40;14.67;;;7.00;99.90;;;;;;4921682;29;20509;-74
2023/02/11 07:44:28;;;;;;;21.13;14.13;;;7.00;99.90;;;;;;4903812;29;20524;-74
2023/02/11 07:46:56;;;;;;;26.67;14.47;;;7.00;99.90;;;;;;4901008;29;20469;-74
2023/02/11 07:49:27;;;;;;;25.63;15.80;;;7.00;99.90;;;;;;4929553;29;20431;-74
2023/02/11 07:51:58;;;;;;;25.40;14.55;;;7.00;99.90;;;;;;4914799;29;20243;-74
2023/02/11 07:54:24;;;;;;;25.30;15.30;;;7.00;99.90;;;;;;4930352;29;20185;-74
2023/02/11 07:56:50;;;;;;;25.60;13.97;;;7.00;99.90;;;;;;4915291;29;20470;-74
2023/02/11 07:59:16;;;;;;;27.57;14.30;;;7.00;99.90;;;;;;4930595;29;20441;-74
2023/02/11 08:01:44;;;;;;;26.92;14.50;;;7.00;99.90;;;;;;4928085;29;20500;-73
2023/02/11 08:04:10;;;;;;;32.93;16.20;;;7.00;99.90;;;;;;4899793;29;20215;-75
2023/02/11 08:06:41;;;;;;;28.83;14.90;;;7.00;99.90;;;;;;4918075;29;20453;-74
2023/02/11 08:09:08;;;;;;;28.63;14.00;;;7.00;99.90;;;;;;4934162;29;20434;-74
2023/02/11 08:11:34;;;;;;;30.87;14.97;;;7.00;99.90;;;;;;4930828;29;20480;-73
2023/02/11 08:14:03;;;;;;;28.30;14.97;;;7.00;99.90;;;;;;4899219;29;20438;-74
2023/02/11 08:16:32;;;;;;;28.33;15.23;;;7.00;99.90;;;;;;4924199;29;20847;-74
2023/02/11 08:19:00;;;;;;;21.35;14.23;;;7.00;99.90;;;;;;4914030;29;20434;-74
2023/02/11 08:21:29;;;;;;;30.13;16.27;;;7.00;99.90;;;;;;4918287;29;20175;-74
2023/02/11 08:23:55;;;;;;;27.87;13.63;;;7.00;99.90;;;;;;4925833;29;21102;-74
2023/02/11 08:26:27;;;;;;;27.67;15.20;;;7.00;99.90;;;;;;4918747;29;20475;-74
2023/02/11 08:28:55;;;;;;;28.60;14.97;;;7.00;99.90;;;;;;4927364;29;20533;-74
2023/02/11 08:31:27;;;;;;;31.87;16.43;;;7.00;99.90;;;;;;4932985;29;20490;-74
2023/02/11 08:33:57;;;;;;;31.73;14.87;;;7.00;99.90;;;;;;4920208;29;20432;-74
2023/02/11 08:36:33;;;;;;;24.43;14.90;;;7.00;99.90;;;;;;4930195;29;20468;-74
2023/02/11 08:39:02;;;;;;;28.93;14.97;;;7.00;99.90;;;;;;4919546;29;20528;-74
2023/02/11 08:41:36;;;;;;;31.33;17.33;;;7.00;99.90;;;;;;4898667;29;20470;-74
2023/02/11 08:44:04;;;;;;;29.13;16.53;;;7.00;99.90;;;;;;4911758;29;21068;-74
2023/02/11 08:46:33;;;;;;;31.73;14.90;;;7.00;99.90;;;;;;4932938;29;20891;-74
2023/02/11 08:49:02;;;;;;;32.03;18.00;;;7.00;99.90;;;;;;4931173;29;20469;-74
2023/02/11 08:51:30;;;;;;;29.40;15.33;;;7.00;99.90;;;;;;4917425;29;20545;-73
2023/02/11 08:53:57;;;;;;;30.00;16.13;;;7.00;99.90;;;;;;4903660;29;20516;-73
2023/02/11 08:56:23;;;;;;;32.83;16.00;;;7.00;99.90;;;;;;4903169;29;20240;-74
2023/02/11 08:58:50;;;;;;;27.70;15.57;;;7.00;99.90;;;;;;4920240;29;20207;-74
2023/02/11 09:01:23;;;;;;;27.83;15.83;;;7.10;99.90;;;;;;4913791;29;20432;-74
2023/02/11 09:03:54;;;;;;;33.77;16.07;;;7.10;99.90;;;;;;4927001;29;20472;-74
2023/02/11 09:06:27;;;;;;;30.43;16.63;;;7.00;99.90;;;;;;4917950;29;20459;-74
2023/02/11 09:08:56;;;;;;;27.70;15.80;;;7.10;99.90;;;;;;4925040;29;20469;-73
2023/02/11 09:11:40;;;;;;;31.43;16.87;;;7.10;99.90;;;;;;4895195;29;20421;-73
2023/02/11 09:14:17;;;;;;;30.60;16.17;;;7.10;99.90;;;;;;4909024;29;20422;-74
2023/02/11 09:16:43;;;;;;;56.27;17.30;;;7.10;99.90;;;;;;4915179;29;20444;-74
2023/02/11 09:19:13;;;;;;;32.90;17.63;;;7.10;99.90;;;;;;4927988;29;20422;-74
2023/02/11 09:21:39;;;;;;;34.33;17.40;;;7.10;99.90;;;;;;4925945;29;20945;-74
2023/02/11 09:24:05;;;;;;;35.23;17.53;;;7.10;99.90;;;;;;4913575;29;20416;-74
2023/02/11 09:26:36;;;;;;;31.30;16.87;;;7.10;99.90;;;;;;4930462;29;20967;-74
2023/02/11 09:29:07;;;;;;;30.87;15.33;;;7.10;99.90;;;;;;4921698;29;20487;-74
2023/02/11 09:31:33;;;;;;;27.43;16.53;;;7.10;99.90;;;;;;4929758;29;20431;-74
2023/02/11 09:34:03;;;;;;;33.40;16.70;;;7.10;99.90;;;;;;4917100;29;20444;-74
2023/02/11 09:36:36;;;;;;;30.27;16.40;;;7.10;99.90;;;;;;4931326;29;20462;-74
2023/02/11 09:39:05;;;;;;;33.50;17.80;;;7.10;99.90;;;;;;4917969;29;20506;-74
2023/02/11 09:42:09;;;;;;;35.90;18.73;;;7.10;99.90;;;;;;4903992;29;20457;-74
2023/02/11 09:44:36;;;;;;;34.20;18.20;;;7.10;99.90;;;;;;4879378;29;20211;-72
2023/02/11 09:47:12;;;;;;;33.67;17.63;;;7.20;99.90;;;;;;4895256;29;20569;-73
2023/02/11 09:49:51;;;;;;;37.13;18.57;;;7.10;99.90;;;;;;4925963;29;20942;-73
2023/02/11 09:52:50;;;;;;;28.00;17.50;;;7.20;99.90;;;;;;4911343;29;20482;-74
2023/02/11 09:55:27;;;;;;;30.93;16.40;;;7.20;99.90;;;;;;4914606;29;20448;-74
2023/02/11 09:57:55;;;;;;;30.90;17.20;;;7.20;99.90;;;;;;4927352;29;20461;-74
2023/02/11 10:00:32;;;;;;;27.60;16.00;;;7.20;99.90;;;;;;4935215;29;20419;-73
2023/02/11 10:03:39;;;;;;;31.03;17.87;;;7.20;99.90;;;;;;4905811;29;20438;-74
2023/02/11 10:06:29;;;;;;;33.30;17.17;;;7.20;99.90;;;;;;4881024;29;20455;-74
2023/02/11 10:09:32;;;;;;;36.63;18.20;;;7.20;99.90;;;;;;4935192;29;20452;-74
2023/02/11 10:12:15;;;;;;;39.07;17.43;;;7.20;99.90;;;;;;4933539;29;20427;-75
2023/02/11 10:14:53;;;;;;;33.78;18.02;;;7.20;99.90;;;;;;4924952;29;20427;-76
2023/02/11 10:17:40;;;;;;;29.03;18.17;;;7.20;99.90;;;;;;4927931;29;20205;-74
2023/02/11 10:20:29;;;;;;;37.07;17.30;;;7.20;99.90;;;;;;4933490;29;20925;-74
2023/02/11 10:23:04;;;;;;;35.70;17.27;;;7.20;99.90;;;;;;4924742;29;20468;-74
2023/02/11 10:25:38;;;;;;;33.23;17.77;;;7.20;99.90;;;;;;4927973;29;20442;-74
2023/02/11 10:28:13;;;;;;;36.03;19.07;;;7.20;99.90;;;;;;4914490;29;20537;-74
2023/02/11 10:30:51;;;;;;;33.15;17.65;;;7.20;99.90;;;;;;4914035;29;20448;-74
2023/02/11 10:33:40;;;;;;;31.93;18.40;;;7.20;99.90;;;;;;4899485;29;20620;-72
2023/02/11 10:36:14;;;;;;;33.55;18.15;;;7.20;99.90;;;;;;4934075;29;20846;-77
2023/02/11 10:38:41;;;;;;;33.67;18.73;;;7.20;99.90;;;;;;4914767;29;20676;-76
2023/02/11 10:41:16;;;;;;;32.00;18.23;;;7.20;99.90;;;;;;4920390;29;20458;-76
2023/02/11 10:43:44;;;;;;;34.30;17.87;;;7.20;99.90;;;;;;4909303;29;20439;-75
2023/02/11 10:46:20;;;;;;;31.30;18.17;;;7.30;99.90;;;;;;4934013;29;20450;-74
2023/02/11 10:48:51;;;;;;;33.53;18.60;;;7.30;99.90;;;;;;4891279;29;20897;-74
2023/02/11 10:51:17;;;;;;;31.30;18.60;;;7.30;99.90;;;;;;4914946;29;20901;-73
2023/02/11 10:53:45;;;;;;;39.90;19.17;;;7.30;99.90;;;;;;4901204;29;20430;-74
2023/02/11 10:56:21;;;;;;;31.80;18.37;;;7.30;99.90;;;;;;4915006;29;20968;-74
2023/02/11 10:59:13;;;;;;;29.37;18.67;;;7.30;99.90;;;;;;4927102;29;20477;-72
2023/02/11 11:01:44;;;;;;;38.03;18.73;;;7.30;99.90;;;;;;4907299;29;20451;-77
2023/02/11 11:04:29;;;;;;;28.40;17.60;;;7.30;99.90;;;;;;4883740;29;20830;-72
2023/02/11 11:06:57;;;;;;;38.60;18.80;;;7.30;99.90;;;;;;4897838;29;20462;-75
2023/02/11 11:09:41;;;;;;;27.93;17.90;;;7.30;99.90;;;;;;4899451;29;20415;-77
2023/02/11 11:13:01;;;;;;;34.33;18.00;;;7.40;99.90;;;;;;4915321;29;20398;-75
2023/02/11 11:15:29;;;;;;;29.60;18.00;;;7.40;99.90;;;;;;4875747;29;20449;-75
2023/02/11 11:18:27;;;;;;;35.70;19.00;;;7.40;99.90;;;;;;4894075;29;20495;-75
2023/02/11 11:21:06;;;;;;;33.60;17.83;;;7.40;99.90;;;;;;4891816;29;20454;-75
2023/02/11 11:23:35;;;;;;;34.40;18.83;;;7.40;99.90;;;;;;4920470;29;20182;-76
2023/02/11 11:26:10;;;;;;;34.07;19.17;;;7.40;99.90;;;;;;4918742;29;20466;-74
2023/02/11 11:28:45;;;;;;;32.00;18.40;;;7.40;99.90;;;;;;4917718;29;20463;-74
2023/02/11 11:31:17;;;;;;;35.50;18.80;;;7.40;99.90;;;;;;4918861;29;20430;-73
2023/02/11 11:33:49;;;;;;;34.13;18.73;;;7.40;99.90;;;;;;4918821;29;20415;-74
2023/02/11 11:36:20;;;;;;;34.00;19.70;;;7.40;99.90;;;;;;4919247;29;20949;-77
2023/02/11 11:38:56;;;;;;;34.47;18.83;;;7.40;99.90;;;;;;4901920;29;20526;-76
2023/02/11 11:41:30;;;;;;;38.33;20.47;;;7.40;99.90;;;;;;4916715;29;20448;-75
2023/02/11 11:44:28;;;;;;;34.60;20.63;;;7.40;99.90;;;;;;4917632;29;20530;-76
2023/02/11 11:47:20;;;;;;;33.80;19.50;;;7.40;99.90;;;;;;4913484;29;20470;-75
2023/02/11 11:50:15;;;;;;;35.33;18.77;;;7.50;99.90;;;;;;4917307;29;20521;-75
2023/02/11 11:52:47;;;;;;;36.43;18.37;;;7.50;99.90;;;;;;4918455;29;20889;-74
2023/02/11 11:55:45;;;;;;;41.80;20.77;;;7.40;99.90;;;;;;4923806;29;21009;-74
2023/02/11 11:58:17;;;;;;;41.83;19.75;;;7.40;99.90;;;;;;4914959;29;20461;-74
2023/02/11 12:00:56;;;;;;;38.67;19.87;;;7.50;99.90;;;;;;4922078;29;20182;-74
2023/02/11 12:04:01;;;;;;;32.53;18.37;;;7.40;99.90;;;;;;4923705;29;20445;-75
2023/02/11 12:06:55;;;;;;;28.53;17.67;;;7.50;99.90;;;;;;4917663;29;20897;-72
2023/02/11 12:09:23;;;;;;;37.97;19.33;;;7.50;99.90;;;;;;4917673;29;20763;-75
2023/02/11 12:12:25;;;;;;;30.63;17.53;;;7.50;99.90;;;;;;4930688;29;20410;-74
2023/02/11 12:15:07;;;;;;;34.70;19.47;;;7.50;99.90;;;;;;4933559;29;20418;-74
2023/02/11 12:18:01;;;;;;;32.83;19.20;;;7.50;99.90;;;;;;4937176;29;20812;-74
2023/02/11 12:20:33;;;;;;;35.90;19.57;;;7.50;99.90;;;;;;4903692;29;20925;-73
2023/02/11 12:23:36;;;;;;;31.00;18.23;;;7.50;99.90;;;;;;4927402;29;21138;-76
2023/02/11 12:26:11;;;;;;;37.50;18.27;;;7.50;99.90;;;;;;4915907;29;20495;-75
2023/02/11 12:29:02;;;;;;;31.17;17.90;;;7.50;99.90;;;;;;4916958;29;20863;-74
2023/02/11 12:31:51;;;;;;;41.00;19.40;;;7.50;99.90;;;;;;4924742;29;20482;-74
2023/02/11 12:34:35;;;;;;;32.67;18.90;;;7.50;99.90;;;;;;4929868;29;20600;-76
2023/02/11 12:37:24;;;;;;;35.33;18.53;;;7.50;99.90;;;;;;4915408;29;20511;-73
2023/02/11 12:40:04;;;;;;;36.90;20.40;;;7.50;99.90;;;;;;4900765;29;20444;-73
2023/02/11 12:43:15;;;;;;;32.20;19.30;;;7.60;99.90;;;;;;4901354;29;20480;-72
2023/02/11 12:46:16;;;;;;;36.50;20.50;;;7.60;99.90;;;;;;4897865;29;20921;-73
2023/02/11 12:49:07;;;;;;;35.97;19.33;;;7.60;99.90;;;;;;4911828;29;20590;-72
2023/02/11 12:51:44;;;;;;;41.40;21.30;;;7.60;99.90;;;;;;4935207;29;20511;-72
2023/02/11 12:54:25;;;;;;;31.83;19.50;;;7.60;99.90;;;;;;4930292;29;20462;-72
2023/02/11 12:57:31;;;;;;;31.80;18.23;;;7.60;99.90;;;;;;4900600;29;20446;-72
2023/02/11 13:00:03;;;;;;;31.23;19.05;;;7.60;99.90;;;;;;4860772;29;20849;-72
2023/02/11 13:02:48;;;;;;;38.80;20.17;;;7.60;99.90;;;;;;4870587;29;20295;-72
2023/02/11 13:05:48;;;;;;;40.43;20.40;;;7.60;99.90;;;;;;4861768;29;20466;-72
2023/02/11 13:08:38;;;;;;;40.03;21.30;;;7.60;99.90;;;;;;4831706;29;20515;-72